Time;durP1;ratioP1;P1;durP2;ratioP2;P2;SDS_P1;SDS_P2;PMS_P1;PMS_P2;Temp;Humidity;BMP_temperature;BMP_pressure;BME280_temperature;BME280_humidity;BME280_pressure;Samples;Min_cycle;Max_cycle;Signal;HPM_P1;HPM_P2
2023/10/03 00:00:24;;;;;;;43.63;18.50;;;14.20;99.90;;;;;;5040020;28;20177;-30
2023/10/03 00:02:57;;;;;;;38.93;18.43;;;14.20;99.90;;;;;;5054150;28;20212;-31
2023/10/03 00:05:28;;;;;;;42.50;18.87;;;14.20;99.90;;;;;;5067751;28;20204;-30
2023/10/03 00:07:54;;;;;;;40.03;18.30;;;14.10;99.90;;;;;;5088216;28;20244;-31
2023/10/03 00:10:20;;;;;;;44.33;19.03;;;14.10;99.90;;;;;;5054463;28;20230;-31
2023/10/03 00:12:48;;;;;;;40.43;18.87;;;14.10;99.90;;;;;;5053676;28;20189;-31
2023/10/03 00:15:25;;;;;;;41.50;19.43;;;14.20;99.90;;;;;;5077451;28;20248;-31
2023/10/03 00:17:52;;;;;;;43.77;20.17;;;14.20;99.90;;;;;;5054207;28;20177;-31
2023/10/03 00:20:19;;;;;;;42.33;19.00;;;14.10;99.90;;;;;;5045284;28;20220;-31
2023/10/03 00:22:45;;;;;;;40.63;19.33;;;14.10;99.90;;;;;;5053823;28;20181;-30
2023/10/03 00:25:19;;;;;;;44.53;19.83;;;14.00;99.90;;;;;;5056149;28;20220;-31
2023/10/03 00:27:49;;;;;;;44.63;20.40;;;14.00;99.90;;;;;;5074393;28;20256;-31
2023/10/03 00:30:25;;;;;;;43.77;19.73;;;14.00;99.90;;;;;;5055025;28;20182;-31
2023/10/03 00:32:52;;;;;;;39.57;18.30;;;13.90;99.90;;;;;;5053469;28;20188;-30
2023/10/03 00:35:20;;;;;;;42.10;19.43;;;13.80;99.90;;;;;;5065667;28;20196;-31
2023/10/03 00:37:47;;;;;;;43.70;17.97;;;13.80;99.90;;;;;;5090835;28;20187;-31
2023/10/03 00:42:52;;;;;;;40.60;19.20;;;13.80;99.90;;;;;;5070329;28;20189;-30
2023/10/03 00:45:25;;;;;;;38.77;18.53;;;13.70;99.90;;;;;;5050361;28;20197;-31
2023/10/03 00:47:54;;;;;;;39.63;18.27;;;13.70;99.90;;;;;;5046912;28;20190;-31
2023/10/03 00:50:23;;;;;;;38.83;17.83;;;13.70;99.90;;;;;;5045949;28;20207;-30
2023/10/03 00:52:55;;;;;;;41.97;18.97;;;13.70;99.90;;;;;;5052467;28;20642;-30
2023/10/03 00:55:26;;;;;;;41.50;18.60;;;13.60;99.90;;;;;;5053446;28;20193;-30
2023/10/03 00:58:17;;;;;;;37.53;17.97;;;13.60;99.90;;;;;;5061483;28;20242;-31
2023/10/03 01:00:50;;;;;;;37.73;16.97;;;13.60;99.90;;;;;;5056004;28;20185;-30
2023/10/03 01:03:39;;;;;;;38.83;17.20;;;13.50;99.90;;;;;;5061192;28;20177;-30
2023/10/03 01:06:12;;;;;;;38.63;18.00;;;13.50;99.90;;;;;;5051287;28;20181;-31
2023/10/03 01:08:49;;;;;;;45.57;19.07;;;13.50;99.90;;;;;;5071391;28;20205;-30
2023/10/03 01:11:17;;;;;;;43.67;18.20;;;13.40;99.90;;;;;;5051052;28;20179;-31
2023/10/03 01:13:53;;;;;;;38.10;18.03;;;13.30;99.90;;;;;;5046396;28;20193;-30
2023/10/03 01:16:29;;;;;;;41.83;18.73;;;13.30;99.90;;;;;;5052753;28;20177;-31
2023/10/03 01:19:02;;;;;;;40.87;18.70;;;13.30;99.90;;;;;;5061500;28;20219;-30
2023/10/03 01:21:28;;;;;;;40.40;18.97;;;13.30;99.90;;;;;;5065441;28;20187;-30
2023/10/03 01:23:54;;;;;;;33.37;16.70;;;13.30;99.90;;;;;;5054837;28;20204;-31
2023/10/03 01:26:21;;;;;;;42.30;18.63;;;13.30;99.90;;;;;;5052611;28;20188;-30
2023/10/03 01:28:48;;;;;;;35.57;17.93;;;13.20;99.90;;;;;;5047218;28;20209;-30
2023/10/03 01:31:15;;;;;;;38.67;18.70;;;13.20;99.90;;;;;;5050651;28;20204;-31
2023/10/03 01:33:41;;;;;;;37.70;17.53;;;13.20;99.90;;;;;;5052597;28;20261;-30
2023/10/03 01:36:07;;;;;;;41.40;18.80;;;13.20;99.90;;;;;;5062962;28;20180;-31
2023/10/03 01:38:33;;;;;;;39.00;18.03;;;13.10;99.90;;;;;;5052163;28;20269;-31
2023/10/03 01:41:00;;;;;;;39.70;19.00;;;13.10;99.90;;;;;;5044601;28;20284;-30
2023/10/03 01:43:27;;;;;;;37.50;18.07;;;13.00;99.90;;;;;;5051512;28;20187;-30
2023/10/03 01:45:54;;;;;;;36.03;17.83;;;13.00;99.90;;;;;;5052568;28;20184;-30
2023/10/03 01:48:20;;;;;;;38.63;17.67;;;13.00;99.90;;;;;;5056016;28;20207;-31
2023/10/03 01:50:50;;;;;;;41.17;19.57;;;13.00;99.90;;;;;;5056974;28;20177;-31
2023/10/03 01:53:17;;;;;;;40.57;19.10;;;12.90;99.90;;;;;;5051748;28;20272;-30
2023/10/03 01:55:44;;;;;;;37.90;18.70;;;12.70;99.90;;;;;;5068845;28;20177;-30
2023/10/03 01:58:10;;;;;;;39.50;18.80;;;12.60;99.90;;;;;;5072663;28;20196;-30
2023/10/03 02:00:37;;;;;;;37.60;17.87;;;12.60;99.90;;;;;;5054134;28;20275;-30
2023/10/03 02:03:05;;;;;;;39.23;18.50;;;12.70;99.90;;;;;;5056156;28;20238;-31
2023/10/03 02:05:38;;;;;;;43.13;18.57;;;12.70;99.90;;;;;;5077358;28;20211;-31
2023/10/03 02:08:15;;;;;;;40.43;18.73;;;12.70;99.90;;;;;;5067716;28;20212;-30
2023/10/03 02:10:43;;;;;;;41.40;18.00;;;12.80;99.90;;;;;;5073587;28;20183;-30
2023/10/03 02:13:19;;;;;;;36.97;18.30;;;12.70;99.90;;;;;;5086265;28;20274;-30
2023/10/03 02:15:47;;;;;;;38.80;17.97;;;12.70;99.90;;;;;;5048816;28;20184;-30
2023/10/03 02:18:14;;;;;;;46.20;19.27;;;12.70;99.90;;;;;;5058733;28;20184;-30
2023/10/03 02:20:52;;;;;;;37.43;17.77;;;12.70;99.90;;;;;;5061427;28;20192;-30
2023/10/03 02:23:25;;;;;;;39.57;18.50;;;12.70;99.90;;;;;;5071451;28;20195;-30
2023/10/03 02:26:10;;;;;;;42.57;18.63;;;12.60;99.90;;;;;;5055934;28;20177;-30
2023/10/03 02:28:36;;;;;;;37.00;17.83;;;12.70;99.90;;;;;;5056448;28;20217;-31
2023/10/03 02:31:07;;;;;;;40.23;18.13;;;12.70;99.90;;;;;;5053338;28;20246;-31
2023/10/03 02:33:40;;;;;;;40.33;19.03;;;12.70;99.90;;;;;;5055964;28;20205;-30
2023/10/03 02:36:08;;;;;;;41.30;19.57;;;12.70;99.90;;;;;;5060399;28;20188;-31
2023/10/03 02:38:36;;;;;;;41.50;18.37;;;12.80;99.90;;;;;;5070357;28;20206;-30
2023/10/03 02:41:04;;;;;;;37.57;17.50;;;12.80;99.90;;;;;;5069669;28;20217;-30
2023/10/03 02:43:36;;;;;;;36.23;17.30;;;12.80;99.90;;;;;;5063862;28;20217;-30
2023/10/03 02:46:07;;;;;;;41.93;18.07;;;12.80;99.90;;;;;;5052741;28;20276;-30
2023/10/03 02:48:35;;;;;;;41.07;17.50;;;12.80;99.90;;;;;;5060940;28;20200;-30
2023/10/03 02:51:03;;;;;;;39.70;18.70;;;12.70;99.90;;;;;;5056822;28;20197;-31
2023/10/03 02:53:29;;;;;;;39.80;18.40;;;12.70;99.90;;;;;;5068166;28;20291;-30
2023/10/03 02:55:54;;;;;;;39.03;18.33;;;12.70;99.90;;;;;;5051446;28;20185;-31
2023/10/03 02:58:21;;;;;;;38.20;17.10;;;12.70;99.90;;;;;;5071381;28;20196;-30
2023/10/03 03:00:54;;;;;;;36.50;17.30;;;12.60;99.90;;;;;;5070667;28;20188;-30
2023/10/03 03:03:23;;;;;;;43.83;18.87;;;12.60;99.90;;;;;;5070653;28;20184;-30
2023/10/03 03:05:49;;;;;;;41.93;18.80;;;12.60;99.90;;;;;;5054048;28;20241;-31
2023/10/03 03:10:50;;;;;;;43.23;19.47;;;12.60;99.90;;;;;;5068370;28;20208;-31
2023/10/03 03:13:15;;;;;;;41.93;18.37;;;12.60;99.90;;;;;;5044009;28;20186;-30
2023/10/03 03:16:00;;;;;;;38.63;18.77;;;12.60;99.90;;;;;;5069238;28;20192;-31
2023/10/03 03:18:43;;;;;;;41.43;18.17;;;12.60;99.90;;;;;;5055544;28;20246;-30
2023/10/03 03:21:14;;;;;;;37.80;18.27;;;12.60;99.90;;;;;;5050041;28;20188;-30
2023/10/03 03:23:47;;;;;;;38.77;17.87;;;12.70;99.90;;;;;;5054696;28;20285;-30
2023/10/03 03:26:20;;;;;;;38.07;18.30;;;12.70;99.90;;;;;;5065263;28;20271;-30
2023/10/03 03:28:49;;;;;;;39.87;17.60;;;12.70;99.90;;;;;;5073809;28;20279;-31
2023/10/03 03:31:22;;;;;;;37.10;17.87;;;12.70;99.90;;;;;;5075222;28;20248;-31
2023/10/03 03:34:00;;;;;;;37.27;17.87;;;12.80;99.90;;;;;;5068208;28;20203;-29
2023/10/03 03:36:34;;;;;;;39.17;18.77;;;12.80;99.90;;;;;;5065254;28;20220;-29
2023/10/03 03:39:14;;;;;;;40.23;18.43;;;12.80;99.90;;;;;;5067620;28;20192;-30
2023/10/03 03:41:40;;;;;;;37.70;18.93;;;12.70;99.90;;;;;;5052979;28;20181;-29
2023/10/03 03:44:11;;;;;;;35.87;17.63;;;12.70;99.90;;;;;;5064727;28;20762;-30
2023/10/03 03:46:41;;;;;;;35.13;17.43;;;12.80;99.90;;;;;;5060629;28;20187;-30
2023/10/03 03:49:08;;;;;;;36.70;17.00;;;12.80;99.90;;;;;;5050415;28;20884;-30
2023/10/03 03:51:35;;;;;;;34.60;16.87;;;12.80;99.90;;;;;;5053334;28;20185;-31
2023/10/03 03:54:01;;;;;;;36.67;16.87;;;12.90;99.90;;;;;;5056565;28;20200;-31
2023/10/03 03:56:27;;;;;;;34.73;17.33;;;12.90;99.90;;;;;;5054609;28;20173;-30
2023/10/03 03:58:54;;;;;;;38.40;17.17;;;13.00;99.90;;;;;;5060739;28;20193;-30
2023/10/03 04:01:20;;;;;;;36.93;18.60;;;13.00;99.90;;;;;;5054723;28;20223;-30
2023/10/03 04:03:53;;;;;;;36.90;18.07;;;13.00;99.90;;;;;;5084933;28;20211;-31
2023/10/03 04:06:20;;;;;;;39.67;18.17;;;13.00;99.90;;;;;;5074687;28;20191;-31
2023/10/03 04:08:46;;;;;;;35.50;17.83;;;13.10;99.90;;;;;;5069149;28;20239;-31
2023/10/03 04:11:15;;;;;;;47.07;19.00;;;13.10;99.90;;;;;;5054042;28;20177;-31
2023/10/03 04:13:50;;;;;;;35.73;17.63;;;13.10;99.90;;;;;;5059906;28;20290;-31
2023/10/03 04:16:17;;;;;;;37.93;18.03;;;13.20;99.90;;;;;;5053660;28;20188;-31
2023/10/03 04:18:44;;;;;;;37.33;17.73;;;13.10;99.90;;;;;;5067608;28;20180;-31
2023/10/03 04:21:10;;;;;;;40.00;18.13;;;13.00;99.90;;;;;;5054850;28;20184;-31
2023/10/03 04:23:39;;;;;;;35.43;17.23;;;13.10;99.90;;;;;;5063642;28;20196;-31
2023/10/03 04:26:07;;;;;;;33.87;16.50;;;13.00;99.90;;;;;;5054328;28;20193;-31
2023/10/03 04:28:33;;;;;;;36.23;17.43;;;13.00;99.90;;;;;;5068389;28;20217;-31
2023/10/03 04:30:59;;;;;;;36.17;17.70;;;13.00;99.90;;;;;;5054404;28;20338;-31
2023/10/03 04:33:25;;;;;;;38.00;18.47;;;13.00;99.90;;;;;;5051322;28;20181;-31
2023/10/03 04:35:51;;;;;;;37.67;18.23;;;13.00;99.90;;;;;;5053135;28;20187;-31
2023/10/03 04:38:17;;;;;;;33.97;17.17;;;13.00;99.90;;;;;;5055189;28;20193;-31
2023/10/03 04:40:45;;;;;;;37.40;17.60;;;13.00;99.90;;;;;;5073909;28;20192;-31
2023/10/03 04:43:11;;;;;;;38.70;18.27;;;12.90;99.90;;;;;;5058932;28;20195;-31
2023/10/03 04:45:41;;;;;;;40.47;17.97;;;12.90;99.90;;;;;;5065503;28;20177;-31
2023/10/03 04:48:08;;;;;;;37.13;17.90;;;12.80;99.90;;;;;;5062053;28;20208;-31
2023/10/03 04:50:39;;;;;;;34.20;18.57;;;12.70;99.90;;;;;;5047971;28;20238;-31
2023/10/03 04:53:09;;;;;;;36.80;17.77;;;12.60;99.90;;;;;;5052099;28;20208;-31
2023/10/03 04:55:35;;;;;;;36.50;18.33;;;12.60;99.90;;;;;;5053532;28;20181;-31
2023/10/03 04:58:00;;;;;;;36.90;18.33;;;12.60;99.90;;;;;;5061781;28;20183;-31
2023/10/03 05:00:26;;;;;;;36.70;18.20;;;12.70;99.90;;;;;;5069204;28;20180;-31
2023/10/03 05:02:53;;;;;;;36.60;19.67;;;12.70;99.90;;;;;;5059327;28;20229;-31
2023/10/03 05:05:27;;;;;;;36.03;18.27;;;12.70;99.90;;;;;;5073290;28;20211;-31
2023/10/03 05:07:56;;;;;;;42.33;18.67;;;12.70;99.90;;;;;;5059717;28;20177;-31
2023/10/03 05:10:23;;;;;;;37.47;17.60;;;12.60;99.90;;;;;;5072020;28;20179;-30
2023/10/03 05:12:51;;;;;;;36.90;17.77;;;12.60;99.90;;;;;;5067182;28;20187;-31
2023/10/03 05:15:18;;;;;;;40.73;18.10;;;12.70;99.90;;;;;;5051449;28;20209;-31
2023/10/03 05:17:45;;;;;;;38.07;17.90;;;12.60;99.90;;;;;;5055202;28;20184;-31
2023/10/03 05:20:17;;;;;;;37.83;18.67;;;12.60;99.90;;;;;;5074628;28;20189;-31
2023/10/03 05:22:46;;;;;;;36.83;17.90;;;12.60;99.90;;;;;;5053442;28;20184;-31
2023/10/03 05:25:17;;;;;;;33.03;16.53;;;12.50;99.90;;;;;;5068452;28;20207;-31
2023/10/03 05:27:47;;;;;;;35.13;17.63;;;12.50;99.90;;;;;;5052710;28;20343;-31
2023/10/03 05:30:16;;;;;;;36.37;17.53;;;12.50;99.90;;;;;;5051169;28;20280;-31
2023/10/03 05:32:43;;;;;;;38.20;17.60;;;12.50;99.90;;;;;;5065981;28;20176;-31
2023/10/03 05:35:14;;;;;;;37.10;17.93;;;12.50;99.90;;;;;;5051980;28;20216;-31
2023/10/03 05:37:41;;;;;;;34.80;16.90;;;12.40;99.90;;;;;;5067274;28;20182;-31
2023/10/03 05:40:15;;;;;;;33.10;17.57;;;12.40;99.90;;;;;;5044491;28;20198;-31
2023/10/03 05:42:47;;;;;;;36.03;18.27;;;12.40;99.90;;;;;;5064367;28;20187;-31
2023/10/03 05:45:14;;;;;;;37.90;17.80;;;12.40;99.90;;;;;;5083760;28;20199;-31
2023/10/03 05:47:44;;;;;;;36.37;17.57;;;12.40;99.90;;;;;;5066656;28;20184;-31
2023/10/03 05:50:10;;;;;;;36.63;17.40;;;12.50;99.90;;;;;;5060059;28;20215;-31
2023/10/03 05:52:37;;;;;;;37.40;18.50;;;12.50;99.90;;;;;;5073124;28;20186;-31
2023/10/03 05:55:09;;;;;;;34.60;16.97;;;12.50;99.90;;;;;;5088693;28;20216;-31
2023/10/03 05:57:38;;;;;;;39.37;18.40;;;12.60;99.90;;;;;;5073980;28;20247;-30
2023/10/03 06:00:09;;;;;;;37.40;18.00;;;12.60;99.90;;;;;;5078811;28;20748;-30
2023/10/03 06:02:38;;;;;;;36.07;17.53;;;12.60;99.90;;;;;;5060318;28;20186;-31
2023/10/03 06:05:09;;;;;;;36.60;18.03;;;12.70;99.90;;;;;;5050037;28;20228;-30
2023/10/03 06:07:41;;;;;;;35.63;19.03;;;12.80;99.90;;;;;;5059758;28;20200;-32
2023/10/03 06:10:16;;;;;;;33.00;17.73;;;12.80;99.90;;;;;;5061360;28;20680;-30
2023/10/03 06:12:44;;;;;;;34.50;18.47;;;12.90;99.90;;;;;;5079284;28;20275;-30
2023/10/03 06:15:12;;;;;;;35.47;17.43;;;13.00;99.90;;;;;;5046488;28;20236;-30
2023/10/03 06:17:40;;;;;;;38.90;18.40;;;13.10;99.90;;;;;;5075547;28;20200;-30
2023/10/03 06:20:07;;;;;;;35.27;18.17;;;13.20;99.90;;;;;;5073216;28;20190;-30
2023/10/03 06:22:33;;;;;;;35.67;18.30;;;13.30;99.90;;;;;;5051703;28;20177;-30
2023/10/03 06:24:59;;;;;;;34.53;17.80;;;13.40;99.90;;;;;;5051249;28;20468;-30
2023/10/03 06:27:29;;;;;;;32.17;16.83;;;13.50;99.90;;;;;;5049532;28;20189;-30
2023/10/03 06:29:55;;;;;;;35.63;17.53;;;13.60;99.90;;;;;;5045246;28;20275;-30
2023/10/03 06:32:21;;;;;;;36.07;17.20;;;13.70;99.90;;;;;;5043561;28;20177;-30
2023/10/03 06:34:47;;;;;;;35.03;17.63;;;13.80;99.90;;;;;;5053926;28;20193;-30
2023/10/03 06:37:13;;;;;;;34.23;17.60;;;13.90;99.90;;;;;;5064651;28;20241;-30
2023/10/03 06:39:41;;;;;;;31.70;16.73;;;14.00;99.90;;;;;;5055331;28;20181;-30
2023/10/03 06:42:08;;;;;;;32.70;17.30;;;14.10;99.90;;;;;;5045911;28;20285;-30
2023/10/03 06:44:37;;;;;;;31.07;16.73;;;14.20;99.90;;;;;;5057960;28;20201;-30
2023/10/03 06:47:04;;;;;;;31.77;16.83;;;14.40;99.90;;;;;;5058655;28;20236;-30
2023/10/03 06:49:31;;;;;;;36.93;19.87;;;14.40;99.90;;;;;;5077854;28;20202;-30
2023/10/03 06:52:00;;;;;;;36.63;18.20;;;14.60;99.90;;;;;;5049702;28;20209;-31
2023/10/03 06:54:26;;;;;;;32.47;17.60;;;14.60;99.90;;;;;;5050187;28;20205;-30
2023/10/03 06:56:52;;;;;;;31.50;16.17;;;14.80;99.90;;;;;;5053619;28;20253;-30
2023/10/03 06:59:18;;;;;;;35.40;18.63;;;14.80;99.90;;;;;;5054746;28;20273;-31
2023/10/03 07:01:44;;;;;;;31.40;15.80;;;15.00;99.90;;;;;;5074835;28;20254;-31
2023/10/03 07:04:10;;;;;;;33.93;17.43;;;15.10;99.90;;;;;;5059073;28;20304;-31
2023/10/03 07:06:36;;;;;;;34.77;18.23;;;15.20;99.90;;;;;;5054730;28;20177;-31
2023/10/03 07:09:10;;;;;;;37.57;17.47;;;15.20;99.90;;;;;;5056029;28;20321;-31
2023/10/03 07:11:36;;;;;;;30.90;16.43;;;15.30;99.90;;;;;;5056211;28;20185;-31
2023/10/03 07:14:02;;;;;;;35.20;17.00;;;15.40;99.90;;;;;;5058807;28;20237;-31
2023/10/03 07:16:39;;;;;;;31.07;17.13;;;15.50;99.90;;;;;;5067883;28;20185;-31
2023/10/03 07:19:05;;;;;;;31.53;16.67;;;15.60;99.90;;;;;;5054561;28;20191;-31
2023/10/03 07:21:34;;;;;;;30.17;16.17;;;15.70;99.90;;;;;;5055723;28;20177;-31
2023/10/03 07:24:00;;;;;;;28.83;14.97;;;15.80;99.90;;;;;;5056527;28;20210;-31
2023/10/03 07:26:27;;;;;;;32.20;16.30;;;15.90;99.90;;;;;;5064607;28;20178;-31
2023/10/03 07:28:58;;;;;;;30.67;16.30;;;16.00;99.90;;;;;;5063907;28;20204;-31
2023/10/03 07:31:25;;;;;;;32.83;15.63;;;16.20;99.90;;;;;;5052259;28;20181;-31
2023/10/03 07:33:52;;;;;;;27.00;14.70;;;16.30;99.90;;;;;;5079158;28;20229;-31
2023/10/03 07:36:18;;;;;;;27.27;14.05;;;16.40;99.90;;;;;;5072008;28;20275;-31
2023/10/03 07:38:45;;;;;;;29.88;14.68;;;16.60;99.90;;;;;;5065899;28;20224;-31
2023/10/03 07:41:13;;;;;;;27.57;14.80;;;16.70;99.90;;;;;;5053643;28;20661;-31
2023/10/03 07:43:49;;;;;;;29.27;15.07;;;16.90;99.90;;;;;;5070227;28;20201;-31
2023/10/03 07:46:23;;;;;;;25.67;13.30;;;17.10;99.90;;;;;;5054966;28;20221;-32
2023/10/03 07:48:52;;;;;;;23.60;13.15;;;17.20;99.90;;;;;;5060598;28;20204;-31
2023/10/03 07:51:20;;;;;;;20.98;12.38;;;17.40;99.90;;;;;;5048411;28;20209;-32
2023/10/03 07:53:47;;;;;;;22.08;12.07;;;17.60;99.90;;;;;;5070087;28;20194;-31
2023/10/03 07:56:24;;;;;;;17.90;10.98;;;17.80;99.90;;;;;;5059690;28;20260;-32
2023/10/03 07:58:53;;;;;;;20.88;11.98;;;17.90;99.90;;;;;;5045576;28;20181;-32
2023/10/03 08:01:21;;;;;;;20.50;11.63;;;18.20;99.90;;;;;;5049665;28;20182;-31
2023/10/03 08:03:47;;;;;;;22.40;12.60;;;18.40;99.90;;;;;;5091010;22;20299;-29
2023/10/03 08:06:15;;;;;;;20.58;11.75;;;18.60;99.90;;;;;;5032818;28;20249;-29
2023/10/03 08:08:41;;;;;;;23.10;12.82;;;18.90;99.90;;;;;;5013087;28;20701;-29
2023/10/03 08:11:07;;;;;;;21.08;12.05;;;19.10;99.90;;;;;;5012508;28;20186;-30
2023/10/03 08:13:38;;;;;;;14.80;9.38;;;19.30;99.90;;;;;;5014150;28;20223;-30
2023/10/03 08:16:05;;;;;;;16.48;9.35;;;19.50;99.90;;;;;;5026640;28;20207;-30
2023/10/03 08:18:36;;;;;;;13.38;8.10;;;19.90;99.90;;;;;;5011514;28;20202;-30
2023/10/03 08:21:04;;;;;;;9.70;6.95;;;20.30;99.90;;;;;;5014329;28;20236;-30
2023/10/03 08:23:37;;;;;;;8.73;6.13;;;20.70;99.90;;;;;;5005273;28;20256;-29
2023/10/03 08:26:03;;;;;;;9.38;6.38;;;21.10;99.90;;;;;;5013486;28;20217;-29
2023/10/03 08:28:32;;;;;;;10.02;5.55;;;21.40;99.90;;;;;;5011321;28;20242;-29
2023/10/03 08:31:06;;;;;;;9.77;6.28;;;21.60;99.90;;;;;;5009859;28;20265;-30
2023/10/03 08:33:39;;;;;;;8.43;6.10;;;21.80;99.90;;;;;;5018474;28;20185;-29
2023/10/03 08:36:14;;;;;;;9.05;5.85;;;22.10;99.90;;;;;;5017522;28;20189;-30
2023/10/03 08:38:43;;;;;;;9.23;5.88;;;22.30;99.90;;;;;;5022385;28;20269;-28
2023/10/03 08:41:47;;;;;;;8.98;6.05;;;22.40;99.90;;;;;;5014005;28;20190;-30
2023/10/03 08:44:14;;;;;;;11.90;6.25;;;22.60;99.90;;;;;;5025807;28;20194;-30
2023/10/03 08:46:46;;;;;;;9.27;5.93;;;22.80;99.90;;;;;;5013885;28;20193;-29
2023/10/03 08:49:17;;;;;;;7.65;5.50;;;23.00;99.90;;;;;;4997186;28;20205;-29
2023/10/03 08:51:46;;;;;;;9.88;5.90;;;23.10;99.90;;;;;;5013235;28;20270;-30
2023/10/03 08:54:13;;;;;;;9.82;6.05;;;23.10;99.90;;;;;;5030328;28;20202;-29
2023/10/03 08:56:41;;;;;;;7.53;5.03;;;23.10;99.90;;;;;;4997326;28;20269;-31
2023/10/03 08:59:15;;;;;;;7.45;5.22;;;23.30;99.90;;;;;;5001504;28;20186;-30
2023/10/03 09:01:48;;;;;;;8.07;5.55;;;23.40;99.90;;;;;;5029037;28;20224;-30
2023/10/03 09:04:16;;;;;;;8.48;5.63;;;23.60;99.90;;;;;;4997027;28;20224;-30
2023/10/03 09:06:43;;;;;;;9.90;5.18;;;23.70;99.90;;;;;;5016496;28;20181;-29
2023/10/03 09:09:13;;;;;;;9.15;5.75;;;23.90;99.90;;;;;;5013326;28;20738;-29
2023/10/03 09:11:42;;;;;;;6.80;4.93;;;24.00;99.90;;;;;;5030273;28;20182;-30
2023/10/03 09:14:12;;;;;;;8.25;5.45;;;24.20;99.90;;;;;;5012360;28;20252;-30
2023/10/03 09:16:39;;;;;;;9.23;5.30;;;24.30;99.90;;;;;;5013557;28;20233;-29
2023/10/03 09:19:13;;;;;;;8.32;5.10;;;24.40;99.90;;;;;;5019768;28;20206;-30
2023/10/03 09:21:39;;;;;;;10.35;5.53;;;24.50;99.90;;;;;;5031104;28;20194;-30
2023/10/03 09:24:15;;;;;;;10.90;5.30;;;24.60;99.90;;;;;;5019311;28;20263;-31
2023/10/03 09:26:52;;;;;;;7.50;5.82;;;24.70;99.90;;;;;;5023649;28;20689;-31
2023/10/03 09:29:29;;;;;;;7.20;5.00;;;24.90;99.90;;;;;;5018550;28;20202;-31
2023/10/03 09:32:19;;;;;;;7.22;4.97;;;25.10;99.90;;;;;;5017995;28;20179;-32
2023/10/03 09:34:48;;;;;;;5.90;4.50;;;25.10;99.90;;;;;;5012776;28;20201;-31
2023/10/03 09:37:17;;;;;;;6.75;4.82;;;25.30;99.90;;;;;;5001086;28;20178;-29
2023/10/03 09:39:48;;;;;;;6.35;4.60;;;25.50;99.90;;;;;;5015933;28;20248;-30
2023/10/03 09:42:16;;;;;;;7.45;5.20;;;25.50;99.90;;;;;;5017756;28;20201;-30
2023/10/03 09:44:49;;;;;;;8.25;4.70;;;25.60;99.90;;;;;;5000781;28;20207;-30
2023/10/03 09:47:18;;;;;;;7.43;4.97;;;25.70;99.90;;;;;;5012122;28;20194;-30
2023/10/03 09:49:46;;;;;;;8.48;4.75;;;25.80;99.90;;;;;;5030676;28;20299;-29
2023/10/03 09:52:26;;;;;;;5.93;4.65;;;25.90;99.90;;;;;;5004754;28;20175;-29
2023/10/03 09:54:59;;;;;;;6.22;4.13;;;26.00;99.90;;;;;;5016956;28;20206;-31
2023/10/03 09:57:29;;;;;;;8.43;5.47;;;26.00;99.90;;;;;;5016788;28;20243;-29
2023/10/03 09:59:58;;;;;;;6.88;4.53;;;26.10;99.90;;;;;;5008013;28;20179;-29
2023/10/03 10:02:46;;;;;;;6.32;4.65;;;26.10;99.90;;;;;;5025887;28;20190;-30
2023/10/03 10:05:21;;;;;;;7.40;4.80;;;26.30;99.90;;;;;;4996430;28;20229;-30
2023/10/03 10:08:06;;;;;;;8.00;4.55;;;26.50;99.90;;;;;;5025608;28;20205;-29
2023/10/03 10:10:33;;;;;;;8.90;5.03;;;26.50;99.90;;;;;;5014113;28;20225;-30
2023/10/03 10:13:12;;;;;;;7.63;4.68;;;26.60;99.90;;;;;;5040226;28;20174;-33
2023/10/03 10:18:43;;;;;;;6.97;4.63;;;26.80;99.90;;;;;;5032364;28;20198;-31
2023/10/03 10:21:25;;;;;;;7.78;4.50;;;26.70;99.90;;;;;;5015797;28;20183;-32
2023/10/03 10:24:16;;;;;;;6.18;4.63;;;26.70;99.90;;;;;;5012567;28;20178;-31
2023/10/03 10:26:48;;;;;;;7.35;4.15;;;26.70;99.90;;;;;;5009422;28;20250;-29
2023/10/03 10:29:22;;;;;;;7.22;4.85;;;26.70;99.90;;;;;;5006831;28;20232;-30
2023/10/03 10:31:57;;;;;;;6.78;4.90;;;26.80;99.90;;;;;;5016120;28;20186;-30
2023/10/03 10:34:27;;;;;;;5.60;4.35;;;26.90;99.90;;;;;;5024650;28;20202;-30
2023/10/03 10:37:15;;;;;;;6.13;4.60;;;26.90;99.90;;;;;;5000242;28;20182;-31
2023/10/03 10:39:56;;;;;;;6.85;4.80;;;26.80;99.90;;;;;;5032710;28;20178;-31
2023/10/03 10:42:26;;;;;;;7.88;5.00;;;26.50;99.90;;;;;;5021003;28;20189;-33
2023/10/03 10:45:16;;;;;;;6.28;4.25;;;26.40;99.90;;;;;;5012408;28;20214;-30
2023/10/03 10:47:51;;;;;;;5.40;4.40;;;26.40;99.90;;;;;;4992197;28;20229;-31
2023/10/03 10:50:30;;;;;;;4.93;4.40;;;26.50;99.90;;;;;;4999722;28;20205;-29
2023/10/03 10:52:57;;;;;;;7.75;4.93;;;26.60;99.90;;;;;;5014523;28;20186;-32
2023/10/03 10:55:24;;;;;;;8.43;5.55;;;26.80;99.90;;;;;;5015981;28;20202;-30
2023/10/03 10:58:07;;;;;;;8.05;4.80;;;26.80;99.90;;;;;;5016388;28;20206;-29
2023/10/03 11:00:33;;;;;;;7.30;5.18;;;26.90;99.90;;;;;;5013107;28;20190;-30
2023/10/03 11:03:03;;;;;;;7.60;5.05;;;26.80;99.90;;;;;;5003969;28;20170;-29
2023/10/03 11:05:47;;;;;;;8.95;5.28;;;26.70;99.90;;;;;;5006326;28;20203;-30
2023/10/03 11:08:13;;;;;;;6.82;4.95;;;26.70;99.90;;;;;;5026758;28;20178;-30
2023/10/03 11:10:52;;;;;;;8.38;5.15;;;26.60;99.90;;;;;;5025493;28;20190;-30
2023/10/03 11:13:19;;;;;;;9.88;5.35;;;26.50;99.90;;;;;;5036885;28;20190;-31
2023/10/03 11:15:54;;;;;;;15.98;5.60;;;26.30;99.90;;;;;;5015247;28;20209;-32
2023/10/03 11:18:31;;;;;;;8.88;5.38;;;26.10;99.90;;;;;;5015686;28;20190;-30
2023/10/03 11:20:59;;;;;;;8.52;5.50;;;26.00;99.90;;;;;;5015520;28;20178;-29
2023/10/03 11:23:25;;;;;;;10.20;5.45;;;25.90;99.90;;;;;;5015208;28;20264;-30
2023/10/03 11:25:59;;;;;;;9.00;5.80;;;25.70;99.90;;;;;;5014988;28;20226;-30
2023/10/03 11:28:28;;;;;;;10.77;5.40;;;25.70;99.90;;;;;;5027109;28;20207;-30
2023/10/03 11:31:05;;;;;;;8.00;5.50;;;25.70;99.90;;;;;;5031944;28;20273;-30
2023/10/03 11:33:42;;;;;;;11.02;5.60;;;25.80;99.90;;;;;;5015574;28;20185;-30
2023/10/03 11:36:07;;;;;;;12.52;6.10;;;25.70;99.90;;;;;;5031611;28;20228;-30
2023/10/03 11:38:54;;;;;;;11.75;5.97;;;25.70;99.90;;;;;;5023927;28;20190;-30
2023/10/03 11:41:38;;;;;;;10.02;5.85;;;25.50;99.90;;;;;;5039628;28;20182;-30
2023/10/03 11:44:06;;;;;;;13.48;5.70;;;25.30;99.90;;;;;;5031264;28;20245;-30
2023/10/03 11:46:44;;;;;;;9.48;5.60;;;25.10;99.90;;;;;;5014934;28;20255;-30
2023/10/03 11:49:10;;;;;;;10.77;5.60;;;25.00;99.90;;;;;;5023407;28;20214;-30
2023/10/03 11:51:38;;;;;;;8.80;5.35;;;24.90;99.90;;;;;;4996418;28;20245;-30
2023/10/03 11:54:10;;;;;;;8.10;5.78;;;24.80;99.90;;;;;;5015111;28;20233;-30
2023/10/03 11:56:41;;;;;;;9.48;5.53;;;24.80;99.90;;;;;;5023033;28;20181;-29
2023/10/03 11:59:06;;;;;;;8.98;6.00;;;24.80;99.90;;;;;;5014254;28;20231;-30
2023/10/03 12:01:33;;;;;;;8.55;5.38;;;24.80;99.90;;;;;;5022926;28;20186;-34
2023/10/03 12:03:59;;;;;;;8.82;5.90;;;24.70;99.90;;;;;;5026421;28;20206;-32
2023/10/03 12:06:25;;;;;;;9.15;5.32;;;24.80;99.90;;;;;;5018518;28;20198;-33
2023/10/03 12:08:51;;;;;;;9.02;5.95;;;24.80;99.90;;;;;;5014498;28;20211;-31
2023/10/03 12:11:17;;;;;;;8.13;5.80;;;24.80;99.90;;;;;;5004548;28;20181;-29
2023/10/03 12:13:43;;;;;;;10.30;5.78;;;24.70;99.90;;;;;;5024182;28;20654;-29
2023/10/03 12:16:09;;;;;;;8.55;5.75;;;24.80;99.90;;;;;;5014737;28;20269;-30
2023/10/03 12:18:37;;;;;;;10.23;6.25;;;24.80;99.90;;;;;;5022761;28;20792;-29
2023/10/03 12:21:04;;;;;;;7.65;5.55;;;24.90;99.90;;;;;;5016158;28;20229;-30
2023/10/03 12:23:30;;;;;;;8.07;5.80;;;24.80;99.90;;;;;;5016436;28;20191;-30
2023/10/03 12:25:57;;;;;;;10.18;5.95;;;24.80;99.90;;;;;;5017159;28;20212;-29
2023/10/03 12:28:23;;;;;;;8.23;5.68;;;24.80;99.90;;;;;;5001522;28;20189;-30
2023/10/03 12:30:52;;;;;;;10.98;6.18;;;24.80;99.90;;;;;;5012986;28;20179;-30
2023/10/03 12:33:19;;;;;;;10.85;5.95;;;25.00;99.90;;;;;;5020271;28;20174;-30
2023/10/03 12:35:46;;;;;;;7.30;5.63;;;25.00;99.90;;;;;;5027981;28;20233;-31
2023/10/03 12:38:12;;;;;;;15.23;6.88;;;25.00;99.90;;;;;;4998233;28;20178;-30
2023/10/03 12:40:37;;;;;;;8.88;6.18;;;24.80;99.90;;;;;;5021740;28;20178;-30
2023/10/03 12:43:03;;;;;;;8.88;6.22;;;24.70;99.90;;;;;;4997480;28;20175;-30
2023/10/03 12:45:29;;;;;;;41.60;7.97;;;24.80;99.90;;;;;;5010722;28;20199;-31
2023/10/03 12:47:56;;;;;;;7.95;6.32;;;24.80;99.90;;;;;;5013856;28;20258;-30
2023/10/03 12:50:24;;;;;;;8.30;6.25;;;25.00;99.90;;;;;;4997787;28;20226;-29
2023/10/03 12:52:55;;;;;;;9.52;6.30;;;25.10;99.90;;;;;;5012691;28;20236;-29
2023/10/03 12:55:25;;;;;;;9.30;6.10;;;25.20;99.90;;;;;;5013886;28;20202;-30